Time;durP1;ratioP1;P1;durP2;ratioP2;P2;SDS_P1;SDS_P2;PMS_P1;PMS_P2;Temp;Humidity;BMP_temperature;BMP_pressure;BME280_temperature;BME280_humidity;BME280_pressure;Samples;Min_cycle;Max_cycle;Signal;HPM_P1;HPM_P2
2023/09/25 00:02:04;;;;;;;11.30;10.55;;;18.10;99.90;;;;;;5095876;28;20034;-85
2023/09/25 00:04:31;;;;;;;11.15;10.38;;;18.10;99.90;;;;;;5078997;28;20020;-84
2023/09/25 00:06:58;;;;;;;10.88;10.10;;;18.10;99.90;;;;;;5095054;28;20024;-83
2023/09/25 00:09:26;;;;;;;11.30;10.32;;;18.10;99.90;;;;;;5078180;28;20024;-82
2023/09/25 00:11:52;;;;;;;10.98;10.10;;;18.10;99.90;;;;;;5074865;28;20388;-84
2023/09/25 00:14:19;;;;;;;11.38;10.50;;;18.10;99.90;;;;;;5075025;28;20027;-83
2023/09/25 00:16:48;;;;;;;11.50;10.63;;;18.20;99.90;;;;;;5058858;28;20123;-83
2023/09/25 00:19:16;;;;;;;11.60;10.40;;;18.10;99.90;;;;;;5073680;28;20796;-83
2023/09/25 00:21:43;;;;;;;11.60;10.60;;;18.20;99.90;;;;;;5079208;28;20035;-83
2023/09/25 00:24:09;;;;;;;11.35;10.48;;;18.20;99.90;;;;;;5078635;28;20098;-84
2023/09/25 00:26:36;;;;;;;11.20;10.43;;;18.20;99.90;;;;;;5062117;28;20411;-83
2023/09/25 00:29:02;;;;;;;11.70;10.80;;;18.20;99.90;;;;;;5088276;28;20085;-82
2023/09/25 00:31:30;;;;;;;11.75;10.57;;;18.10;99.90;;;;;;5082081;28;20106;-83
2023/09/25 00:34:00;;;;;;;12.18;11.05;;;18.10;99.90;;;;;;5081948;28;20024;-83
2023/09/25 00:36:26;;;;;;;11.05;10.25;;;18.10;99.90;;;;;;5081836;28;20039;-83
2023/09/25 00:38:53;;;;;;;11.75;10.95;;;18.00;99.90;;;;;;5081729;28;20031;-83
2023/09/25 00:41:20;;;;;;;11.40;10.73;;;18.00;99.90;;;;;;5098488;28;20024;-83
2023/09/25 00:43:47;;;;;;;11.60;10.88;;;18.00;99.90;;;;;;5098316;28;20076;-83
2023/09/25 00:46:13;;;;;;;11.77;11.07;;;18.00;99.90;;;;;;5116859;28;20540;-82
2023/09/25 00:48:42;;;;;;;12.07;11.15;;;17.90;99.90;;;;;;5116646;28;20038;-83
2023/09/25 00:51:13;;;;;;;12.13;11.05;;;17.90;99.90;;;;;;5098380;28;20024;-83
2023/09/25 00:53:41;;;;;;;11.88;10.82;;;17.80;99.90;;;;;;5098406;28;20389;-83
2023/09/25 00:56:08;;;;;;;12.60;10.98;;;17.80;99.90;;;;;;5093655;28;20075;-83
2023/09/25 00:58:34;;;;;;;11.88;10.90;;;17.80;99.90;;;;;;5076377;28;20396;-82
2023/09/25 01:01:02;;;;;;;12.18;10.98;;;17.80;99.90;;;;;;5064068;28;20393;-83
2023/09/25 01:03:31;;;;;;;11.75;10.80;;;17.80;99.90;;;;;;5057674;28;20115;-82
2023/09/25 01:05:59;;;;;;;11.98;11.07;;;17.80;99.90;;;;;;5057935;28;20036;-83
2023/09/25 01:08:25;;;;;;;11.57;10.73;;;17.70;99.90;;;;;;5061347;28;20028;-83
2023/09/25 01:10:55;;;;;;;11.27;10.48;;;17.70;99.90;;;;;;5095677;28;20024;-82
2023/09/25 01:13:21;;;;;;;12.38;11.10;;;17.60;99.90;;;;;;5077796;28;20020;-83
2023/09/25 01:15:48;;;;;;;11.93;10.80;;;17.60;99.90;;;;;;5077810;28;20032;-83
2023/09/25 01:18:15;;;;;;;11.90;10.90;;;17.50;99.90;;;;;;5092757;28;20484;-83
2023/09/25 01:20:41;;;;;;;11.73;10.82;;;17.50;99.90;;;;;;5074560;28;20032;-82
2023/09/25 01:23:10;;;;;;;12.07;10.93;;;17.50;99.90;;;;;;5091411;28;20032;-83
2023/09/25 01:25:37;;;;;;;11.88;10.90;;;17.50;99.90;;;;;;5077687;28;20024;-81
2023/09/25 01:28:04;;;;;;;12.18;11.10;;;17.50;99.90;;;;;;5060840;28;20031;-84
2023/09/25 01:30:31;;;;;;;11.77;10.75;;;17.50;99.90;;;;;;5088588;28;20118;-83
2023/09/25 01:32:58;;;;;;;12.48;11.32;;;17.50;99.90;;;;;;5077563;28;20032;-83
2023/09/25 01:35:26;;;;;;;11.32;10.32;;;17.50;99.90;;;;;;5094278;28;20024;-82
2023/09/25 01:38:02;;;;;;;11.10;10.40;;;17.50;99.90;;;;;;5061915;28;20039;-82
2023/09/25 01:40:30;;;;;;;11.70;10.70;;;17.50;99.90;;;;;;5073936;28;20025;-82
2023/09/25 01:42:57;;;;;;;11.60;10.80;;;17.50;99.90;;;;;;5069159;28;20444;-83
2023/09/25 01:45:24;;;;;;;11.57;10.60;;;17.50;99.90;;;;;;5073750;28;20028;-83
2023/09/25 01:47:53;;;;;;;11.02;10.30;;;17.50;99.90;;;;;;5077159;28;20031;-83
2023/09/25 01:50:27;;;;;;;10.90;10.30;;;17.50;99.90;;;;;;5077203;28;20480;-83
2023/09/25 01:53:03;;;;;;;11.00;10.40;;;17.40;99.90;;;;;;5077069;28;20066;-83
2023/09/25 01:55:35;;;;;;;11.65;10.63;;;17.40;99.90;;;;;;5093510;28;20036;-83
2023/09/25 01:58:04;;;;;;;11.25;10.20;;;17.40;99.90;;;;;;5093658;28;20043;-83
2023/09/25 02:00:31;;;;;;;10.85;10.25;;;17.30;99.90;;;;;;5077001;28;20020;-83
2023/09/25 02:02:57;;;;;;;10.95;10.25;;;17.30;99.90;;;;;;5076776;28;20477;-83
2023/09/25 02:05:24;;;;;;;11.15;10.32;;;17.30;99.90;;;;;;5075483;28;20024;-83
2023/09/25 02:07:53;;;;;;;11.18;10.30;;;17.30;99.90;;;;;;5073487;28;20025;-83
2023/09/25 02:10:19;;;;;;;10.90;10.20;;;17.30;99.90;;;;;;5056802;28;20020;-82
2023/09/25 02:12:47;;;;;;;11.13;10.40;;;17.20;99.90;;;;;;5086833;28;20067;-83
2023/09/25 02:15:13;;;;;;;10.82;10.13;;;17.30;99.90;;;;;;5076160;28;20051;-83
2023/09/25 02:17:40;;;;;;;10.77;10.15;;;17.20;99.90;;;;;;5076098;28;20028;-82
2023/09/25 02:22:40;;;;;;;11.40;10.40;;;17.10;99.90;;;;;;5093363;28;20028;-82
2023/09/25 02:25:08;;;;;;;11.13;10.40;;;17.10;99.90;;;;;;5093068;28;20111;-83
2023/09/25 02:27:35;;;;;;;12.82;10.65;;;17.10;99.90;;;;;;5074416;28;20028;-82
2023/09/25 02:30:02;;;;;;;10.82;9.93;;;17.20;99.90;;;;;;5074277;28;20025;-83
2023/09/25 02:32:29;;;;;;;11.55;10.40;;;17.10;99.90;;;;;;5084980;28;20107;-83
2023/09/25 02:34:56;;;;;;;11.05;10.15;;;17.10;99.90;;;;;;5076116;28;20115;-83
2023/09/25 02:37:22;;;;;;;10.82;9.98;;;17.10;99.90;;;;;;5077815;28;20445;-82
2023/09/25 02:39:50;;;;;;;10.77;9.85;;;17.00;99.90;;;;;;5055456;28;20055;-82
2023/09/25 02:42:17;;;;;;;10.30;9.60;;;17.10;99.90;;;;;;5081545;28;20036;-83
2023/09/25 02:44:46;;;;;;;10.65;9.55;;;17.10;99.90;;;;;;5076034;28;20016;-83
2023/09/25 02:47:13;;;;;;;10.55;9.77;;;17.10;99.90;;;;;;5061348;28;20036;-82
2023/09/25 02:49:40;;;;;;;9.88;9.18;;;17.00;99.90;;;;;;5067075;28;20020;-82
2023/09/25 02:52:07;;;;;;;9.82;9.20;;;17.10;99.90;;;;;;5072297;28;20127;-83
2023/09/25 02:54:33;;;;;;;9.57;8.82;;;17.10;99.90;;;;;;5089396;28;20047;-82
2023/09/25 02:57:00;;;;;;;10.02;9.10;;;17.20;99.90;;;;;;5106415;28;20080;-82
2023/09/25 02:59:31;;;;;;;9.48;8.75;;;17.10;99.90;;;;;;5095682;28;20103;-81
2023/09/25 03:02:02;;;;;;;9.23;8.63;;;17.20;99.90;;;;;;5079001;28;20427;-81
2023/09/25 03:04:29;;;;;;;10.10;9.05;;;17.10;99.90;;;;;;5095850;28;20106;-81
2023/09/25 03:06:56;;;;;;;9.85;9.07;;;17.10;99.90;;;;;;5113912;28;20020;-81
2023/09/25 03:09:23;;;;;;;10.20;9.23;;;17.10;99.90;;;;;;5079037;28;20507;-82
2023/09/25 03:11:49;;;;;;;9.63;8.93;;;17.00;99.90;;;;;;5114099;28;20020;-80
2023/09/25 03:14:16;;;;;;;10.65;9.05;;;17.00;99.90;;;;;;5078778;28;20031;-81
2023/09/25 03:16:42;;;;;;;16.23;9.40;;;17.00;99.90;;;;;;5098491;28;20043;-81
2023/09/25 03:19:09;;;;;;;10.60;9.63;;;17.00;99.90;;;;;;5114505;28;20494;-80
2023/09/25 03:21:36;;;;;;;10.65;9.75;;;17.00;99.90;;;;;;5095516;28;20023;-80
2023/09/25 03:24:02;;;;;;;10.07;9.35;;;17.00;99.90;;;;;;5095617;28;20024;-81
2023/09/25 03:26:28;;;;;;;10.00;8.90;;;17.00;99.90;;;;;;5078942;28;20022;-79
2023/09/25 03:28:55;;;;;;;9.30;8.52;;;17.00;99.90;;;;;;5095894;28;20019;-80
2023/09/25 03:31:22;;;;;;;10.20;8.60;;;17.00;99.90;;;;;;5095415;28;20070;-80
2023/09/25 03:33:50;;;;;;;10.15;8.45;;;17.00;99.90;;;;;;5095462;28;20381;-79
2023/09/25 03:36:17;;;;;;;9.25;8.32;;;17.00;99.90;;;;;;5077970;28;20035;-80
2023/09/25 03:38:43;;;;;;;16.67;8.40;;;17.00;99.90;;;;;;5094939;28;20468;-80
2023/09/25 03:41:11;;;;;;;8.77;7.97;;;17.00;99.90;;;;;;5094186;28;20027;-81
2023/09/25 03:43:37;;;;;;;9.50;8.60;;;17.00;99.90;;;;;;5112720;28;20024;-80
2023/09/25 03:46:04;;;;;;;9.45;8.60;;;17.00;99.90;;;;;;5113554;28;20041;-79
2023/09/25 03:48:30;;;;;;;8.52;7.72;;;17.00;99.90;;;;;;5095252;28;20519;-80
2023/09/25 03:50:57;;;;;;;12.90;7.70;;;17.00;99.90;;;;;;5095051;28;20027;-82
2023/09/25 03:53:24;;;;;;;8.75;8.02;;;17.00;99.90;;;;;;5094893;28;20022;-80
2023/09/25 03:55:53;;;;;;;8.07;7.60;;;17.00;99.90;;;;;;5094204;28;20385;-81
2023/09/25 03:58:20;;;;;;;8.75;8.00;;;16.90;99.90;;;;;;5113457;28;20050;-81
2023/09/25 04:00:48;;;;;;;9.00;8.27;;;16.80;99.90;;;;;;5113528;28;20075;-84
2023/09/25 04:03:20;;;;;;;9.88;9.00;;;16.80;99.90;;;;;;5095003;28;20048;-83
2023/09/25 04:05:47;;;;;;;10.68;8.73;;;16.90;99.90;;;;;;5078341;28;20346;-83
2023/09/25 04:08:14;;;;;;;10.10;8.70;;;16.90;99.90;;;;;;5095180;28;20094;-83
2023/09/25 04:10:40;;;;;;;8.88;8.20;;;16.80;99.90;;;;;;5113302;28;20081;-82
2023/09/25 04:13:08;;;;;;;8.60;8.00;;;16.90;99.90;;;;;;5094759;28;20023;-83
2023/09/25 04:15:35;;;;;;;8.40;7.82;;;16.90;99.90;;;;;;5078580;28;20031;-82
2023/09/25 04:18:01;;;;;;;11.63;8.00;;;16.90;99.90;;;;;;5078913;28;20110;-82
2023/09/25 04:20:28;;;;;;;8.75;8.20;;;17.00;99.90;;;;;;5095133;28;20111;-82
2023/09/25 04:22:58;;;;;;;8.57;7.97;;;16.90;99.90;;;;;;5074792;28;20028;-82
2023/09/25 04:25:24;;;;;;;8.77;7.93;;;17.00;99.90;;;;;;5112406;28;20043;-82
2023/09/25 04:27:54;;;;;;;8.43;7.80;;;17.00;99.90;;;;;;5113201;28;20016;-82
2023/09/25 04:30:27;;;;;;;9.52;8.07;;;16.90;99.90;;;;;;5095102;28;20038;-83
2023/09/25 04:32:55;;;;;;;9.00;8.25;;;16.80;99.90;;;;;;5113173;28;20495;-82
2023/09/25 04:35:22;;;;;;;8.77;7.80;;;16.80;99.90;;;;;;5077566;28;20491;-82
2023/09/25 04:37:49;;;;;;;10.10;9.05;;;16.80;99.90;;;;;;5078069;28;20035;-83
2023/09/25 04:42:54;;;;;;;13.88;9.32;;;16.70;99.90;;;;;;5094515;28;20043;-82
2023/09/25 04:45:23;;;;;;;10.27;9.20;;;16.70;99.90;;;;;;5094569;28;20118;-82
2023/09/25 04:47:55;;;;;;;10.82;9.05;;;16.60;99.90;;;;;;5073998;28;20392;-82
2023/09/25 04:50:25;;;;;;;10.13;8.80;;;16.60;99.90;;;;;;5091627;28;20028;-82
2023/09/25 04:52:55;;;;;;;9.50;8.90;;;16.60;99.90;;;;;;5086241;28;20063;-82
2023/09/25 04:55:27;;;;;;;9.20;8.70;;;16.60;99.90;;;;;;5111843;28;20135;-82
2023/09/25 04:57:53;;;;;;;14.98;9.18;;;16.70;99.90;;;;;;5077835;28;20038;-82
2023/09/25 05:00:27;;;;;;;9.38;8.60;;;16.80;99.90;;;;;;5077490;28;20030;-82
2023/09/25 05:02:56;;;;;;;10.07;9.13;;;16.80;99.90;;;;;;5095442;28;20392;-82
2023/09/25 05:05:23;;;;;;;10.75;8.75;;;16.80;99.90;;;;;;5081463;28;20065;-83
2023/09/25 05:07:52;;;;;;;9.50;8.80;;;16.90;99.90;;;;;;5098403;28;20027;-83
2023/09/25 05:10:27;;;;;;;9.90;9.07;;;17.00;99.90;;;;;;5081140;28;20042;-82
2023/09/25 05:12:55;;;;;;;9.82;9.23;;;17.00;99.90;;;;;;5077764;28;20042;-83
2023/09/25 05:15:23;;;;;;;11.18;10.00;;;17.10;99.90;;;;;;5077633;28;20032;-83
2023/09/25 05:17:51;;;;;;;11.63;10.40;;;17.10;99.90;;;;;;5096269;28;20059;-84
2023/09/25 05:20:22;;;;;;;11.57;10.40;;;17.20;99.90;;;;;;5084571;28;20027;-80
2023/09/25 05:22:56;;;;;;;11.15;10.20;;;17.30;99.90;;;;;;5097975;28;20476;-81
2023/09/25 05:25:23;;;;;;;11.50;10.70;;;17.30;99.90;;;;;;5081349;28;20039;-85
2023/09/25 05:27:52;;;;;;;11.50;10.60;;;17.50;99.90;;;;;;5081343;28;20027;-82
2023/09/25 05:30:20;;;;;;;12.43;11.18;;;17.70;99.90;;;;;;5097742;28;20353;-83
2023/09/25 05:32:49;;;;;;;12.18;11.10;;;17.80;99.90;;;;;;5077366;28;20078;-83
2023/09/25 05:35:18;;;;;;;13.10;11.73;;;17.90;99.90;;;;;;5077552;28;20047;-82
2023/09/25 05:37:48;;;;;;;14.18;12.82;;;18.10;99.90;;;;;;5077386;28;20028;-82
2023/09/25 05:40:16;;;;;;;14.63;13.38;;;18.40;99.90;;;;;;5077473;28;20050;-82
2023/09/25 05:42:47;;;;;;;15.23;13.77;;;18.70;99.90;;;;;;5086636;28;20019;-82
2023/09/25 05:45:16;;;;;;;14.45;13.55;;;19.00;99.90;;;;;;5097421;28;20356;-82
2023/09/25 05:47:43;;;;;;;16.35;15.10;;;19.40;99.90;;;;;;5080535;28;20122;-81
2023/09/25 05:50:11;;;;;;;17.73;16.48;;;20.00;99.90;;;;;;5097442;28;20053;-82
2023/09/25 05:52:42;;;;;;;19.67;18.17;;;20.60;99.90;;;;;;5097374;28;20024;-82
2023/09/25 05:55:12;;;;;;;19.60;18.27;;;21.20;99.90;;;;;;5096610;28;20438;-81
2023/09/25 05:57:41;;;;;;;21.00;19.42;;;21.80;99.90;;;;;;5096920;28;20518;-82
2023/09/25 06:00:12;;;;;;;21.23;19.30;;;22.10;99.90;;;;;;5080697;28;20031;-81
2023/09/25 06:02:40;;;;;;;20.20;18.80;;;22.70;99.90;;;;;;5097117;28;20016;-82
2023/09/25 06:05:15;;;;;;;18.83;17.42;;;22.90;99.90;;;;;;5115173;28;20028;-82
2023/09/25 06:07:42;;;;;;;18.73;17.33;;;22.80;99.90;;;;;;5096655;28;20028;-81
2023/09/25 06:10:09;;;;;;;20.30;18.55;;;23.00;99.90;;;;;;5080068;28;20154;-82
2023/09/25 06:12:36;;;;;;;21.15;19.67;;;23.10;99.90;;;;;;5096754;28;20034;-81
2023/09/25 06:15:05;;;;;;;21.45;19.92;;;23.30;99.90;;;;;;5096826;28;20027;-81
2023/09/25 06:17:32;;;;;;;22.25;20.55;;;22.90;99.90;;;;;;5114714;28;20027;-81
2023/09/25 06:19:58;;;;;;;22.45;20.75;;;22.90;99.90;;;;;;5115004;28;20031;-81
2023/09/25 06:22:26;;;;;;;21.98;20.13;;;22.60;99.90;;;;;;5076328;28;20473;-81
2023/09/25 06:24:53;;;;;;;21.65;20.25;;;22.40;99.90;;;;;;5076657;28;20024;-83
2023/09/25 06:27:22;;;;;;;21.50;19.85;;;22.00;99.90;;;;;;5096255;28;20038;-76
2023/09/25 06:29:58;;;;;;;21.30;19.80;;;22.30;99.90;;;;;;5114815;28;20030;-76
2023/09/25 06:32:25;;;;;;;21.38;19.60;;;22.30;99.90;;;;;;5114115;28;20024;-76
2023/09/25 06:34:51;;;;;;;21.83;20.10;;;22.50;99.90;;;;;;5114261;28;20028;-76
2023/09/25 06:37:18;;;;;;;21.88;20.20;;;22.70;99.90;;;;;;5114526;28;20043;-76
2023/09/25 06:39:45;;;;;;;21.42;19.83;;;22.60;99.90;;;;;;5114649;28;20040;-77
2023/09/25 06:42:12;;;;;;;22.73;20.85;;;22.50;99.90;;;;;;5114007;28;20035;-77
2023/09/25 06:44:40;;;;;;;23.52;21.15;;;22.50;99.90;;;;;;5114492;28;20043;-77
2023/09/25 06:47:09;;;;;;;23.02;21.40;;;22.80;99.90;;;;;;5114141;28;20030;-77
2023/09/25 06:49:38;;;;;;;23.85;21.95;;;23.10;99.90;;;;;;5113599;28;20031;-77
2023/09/25 06:52:09;;;;;;;24.60;22.23;;;23.40;99.90;;;;;;5114364;28;20019;-77
2023/09/25 06:54:41;;;;;;;24.05;21.88;;;23.50;99.90;;;;;;5114061;28;20028;-77
2023/09/25 06:57:09;;;;;;;24.48;22.38;;;23.50;99.90;;;;;;5113491;27;20039;-77
2023/09/25 06:59:38;;;;;;;22.90;21.23;;;23.50;99.90;;;;;;5114168;28;20038;-76
2023/09/25 07:02:05;;;;;;;22.95;21.15;;;23.30;99.90;;;;;;5114069;28;20030;-77
2023/09/25 07:04:59;;;;;;;24.50;22.08;;;23.20;99.90;;;;;;5114059;28;20028;-77
2023/09/25 07:07:29;;;;;;;24.10;22.10;;;23.50;99.90;;;;;;5093645;28;20102;-77
2023/09/25 07:09:56;;;;;;;23.35;21.25;;;23.90;99.90;;;;;;5093544;28;20445;-77
2023/09/25 07:12:30;;;;;;;23.40;21.52;;;24.00;99.90;;;;;;5095544;28;20392;-77
2023/09/25 07:14:58;;;;;;;23.63;21.77;;;23.80;99.90;;;;;;5113127;28;20370;-77
2023/09/25 07:17:42;;;;;;;23.98;21.90;;;23.90;99.90;;;;;;5113722;28;20054;-77
2023/09/25 07:20:19;;;;;;;25.15;21.75;;;24.00;99.90;;;;;;5079138;28;20028;-77
2023/09/25 07:22:46;;;;;;;24.42;22.17;;;23.90;99.90;;;;;;5095142;28;20024;-77
2023/09/25 07:25:13;;;;;;;24.58;22.58;;;24.10;99.90;;;;;;5092920;28;20032;-77
2023/09/25 07:27:41;;;;;;;25.17;23.17;;;24.00;99.90;;;;;;5093148;28;20034;-77
2023/09/25 07:30:08;;;;;;;26.35;24.25;;;24.10;99.90;;;;;;5093434;28;20476;-77
2023/09/25 07:32:35;;;;;;;24.80;22.98;;;24.10;99.90;;;;;;5082035;28;20054;-76
2023/09/25 07:35:09;;;;;;;24.25;22.48;;;24.30;99.90;;;;;;5113311;28;20015;-77
2023/09/25 07:37:41;;;;;;;24.73;22.92;;;24.60;99.90;;;;;;5113548;28;20043;-77
2023/09/25 07:40:09;;;;;;;24.98;23.17;;;24.60;99.90;;;;;;5095588;28;20031;-77
2023/09/25 07:42:39;;;;;;;25.00;23.20;;;24.80;99.90;;;;;;5113467;28;20343;-77
2023/09/25 07:45:11;;;;;;;25.00;22.77;;;25.10;99.90;;;;;;5113251;28;20357;-77
2023/09/25 07:47:43;;;;;;;24.15;22.00;;;24.60;99.90;;;;;;5113441;28;20028;-77
2023/09/25 07:50:10;;;;;;;24.20;22.25;;;24.30;99.90;;;;;;5113482;28;20015;-77
2023/09/25 07:52:42;;;;;;;24.70;22.63;;;24.20;99.90;;;;;;5112992;28;20473;-77
2023/09/25 07:55:13;;;;;;;24.42;22.30;;;24.20;99.90;;;;;;5112745;28;20019;-77
2023/09/25 07:57:44;;;;;;;23.70;22.05;;;24.20;99.90;;;;;;5095072;28;20028;-77
2023/09/25 08:00:46;;;;;;;24.45;22.33;;;24.40;99.90;;;;;;5113341;28;20023;-77
2023/09/25 08:03:06;;;;;;;23.98;22.35;;;24.70;99.90;;;;;;5109117;28;20048;-77
2023/09/25 08:05:45;;;;;;;24.65;22.58;;;25.10;99.90;;;;;;5113301;28;20094;-77
2023/09/25 08:08:12;;;;;;;24.50;22.88;;;25.00;99.90;;;;;;5113260;28;20023;-77
2023/09/25 08:10:47;;;;;;;24.50;22.60;;;24.60;99.90;;;;;;5094793;28;20496;-77
2023/09/25 08:13:15;;;;;;;24.25;22.58;;;24.90;99.90;;;;;;5094895;28;20427;-77
2023/09/25 08:16:45;;;;;;;24.17;22.38;;;24.90;99.90;;;;;;5094853;28;20127;-77
2023/09/25 08:20:18;;;;;;;24.73;22.88;;;24.50;99.90;;;;;;5104803;28;20105;-82
2023/09/25 08:22:46;;;;;;;24.45;22.65;;;24.60;99.90;;;;;;5086090;28;20504;-83
2023/09/25 08:25:12;;;;;;;24.65;22.75;;;24.70;99.90;;;;;;5094835;28;20055;-82
2023/09/25 08:27:43;;;;;;;25.55;23.00;;;24.70;99.90;;;;;;5095057;28;20020;-82
2023/09/25 08:30:11;;;;;;;25.23;23.05;;;24.80;99.90;;;;;;5094978;28;20024;-82
2023/09/25 08:32:40;;;;;;;25.80;23.30;;;24.70;99.90;;;;;;5075480;28;20020;-82
2023/09/25 08:35:07;;;;;;;24.63;22.73;;;24.50;99.90;;;;;;5113013;28;20597;-82
2023/09/25 08:37:34;;;;;;;25.38;23.67;;;24.70;99.90;;;;;;5078222;28;20548;-82
2023/09/25 08:40:01;;;;;;;25.08;23.38;;;24.90;99.90;;;;;;5099327;28;20028;-83
2023/09/25 08:42:27;;;;;;;26.45;23.75;;;24.70;99.90;;;;;;5116411;28;20020;-83
2023/09/25 08:44:59;;;;;;;25.90;24.00;;;24.90;99.90;;;;;;5077805;28;20028;-82
2023/09/25 08:47:28;;;;;;;25.67;23.63;;;24.80;99.90;;;;;;5078007;28;20036;-82
2023/09/25 08:49:55;;;;;;;25.15;23.38;;;24.80;99.90;;;;;;5078189;28;20123;-83
2023/09/25 08:52:23;;;;;;;26.02;24.02;;;24.70;99.90;;;;;;5111877;28;20016;-82
2023/09/25 08:54:51;;;;;;;24.77;23.02;;;24.50;99.90;;;;;;5081563;28;20384;-82
2023/09/25 08:57:22;;;;;;;25.48;23.60;;;24.30;99.90;;;;;;5116354;28;20048;-83
2023/09/25 08:59:50;;;;;;;25.45;23.23;;;24.50;99.90;;;;;;5098551;28;20475;-82
2023/09/25 09:02:17;;;;;;;25.60;23.80;;;24.50;99.90;;;;;;5080938;28;20027;-82
2023/09/25 09:04:45;;;;;;;25.35;23.50;;;24.70;99.90;;;;;;5098170;28;20077;-81
2023/09/25 09:07:14;;;;;;;25.40;23.48;;;24.70;99.90;;;;;;5096087;28;20072;-82
2023/09/25 09:09:43;;;;;;;26.30;24.45;;;24.40;99.90;;;;;;5098111;28;20471;-82
2023/09/25 09:12:10;;;;;;;25.55;23.30;;;24.20;99.90;;;;;;5097887;28;20020;-82
2023/09/25 09:14:39;;;;;;;25.27;23.42;;;24.40;99.90;;;;;;5081031;28;20127;-82
2023/09/25 09:17:07;;;;;;;25.77;23.83;;;24.50;99.90;;;;;;5116183;28;20111;-82
2023/09/25 09:19:39;;;;;;;26.02;24.13;;;24.10;99.90;;;;;;5097958;28;20024;-82
2023/09/25 09:22:07;;;;;;;26.48;24.30;;;24.30;99.90;;;;;;5097403;28;20059;-82
2023/09/25 09:24:37;;;;;;;26.30;24.38;;;24.70;99.90;;;;;;5116160;28;20044;-82
2023/09/25 09:27:08;;;;;;;25.25;23.55;;;24.80;99.90;;;;;;5081214;28;20472;-82
2023/09/25 09:29:39;;;;;;;26.42;24.30;;;24.30;99.90;;;;;;5115935;28;20028;-83
2023/09/25 09:32:14;;;;;;;25.55;23.85;;;24.10;99.90;;;;;;5081475;28;20430;-71
2023/09/25 09:34:49;;;;;;;25.70;23.77;;;24.30;99.90;;;;;;5115870;28;20032;-71
2023/09/25 09:37:25;;;;;;;25.45;23.75;;;24.70;99.90;;;;;;5115699;28;20047;-71
2023/09/25 09:39:55;;;;;;;25.77;24.13;;;25.00;99.90;;;;;;5094918;28;20047;-71
2023/09/25 09:42:26;;;;;;;27.50;25.60;;;25.00;99.90;;;;;;5108994;28;20044;-72
2023/09/25 09:45:26;;;;;;;26.83;25.08;;;25.50;99.90;;;;;;5097442;28;20173;-71
2023/09/25 09:48:39;;;;;;;26.40;24.20;;;25.50;99.90;;;;;;5115641;28;20143;-72
2023/09/25 09:51:34;;;;;;;26.20;24.42;;;24.90;99.90;;;;;;5115466;28;20384;-71
2023/09/25 09:54:05;;;;;;;27.38;25.45;;;25.00;99.90;;;;;;5115546;28;20106;-72
2023/09/25 09:56:35;;;;;;;26.17;24.15;;;25.10;99.90;;;;;;5114799;28;20079;-71
2023/09/25 09:59:05;;;;;;;26.27;24.48;;;25.40;99.90;;;;;;5115479;28;20473;-72
2023/09/25 10:01:35;;;;;;;26.45;24.60;;;24.80;99.90;;;;;;5115180;28;20035;-72
2023/09/25 10:04:07;;;;;;;25.65;23.77;;;24.40;99.90;;;;;;5115546;28;20024;-71
2023/09/25 10:07:08;;;;;;;26.70;24.48;;;24.40;99.90;;;;;;5114361;28;20123;-71
2023/09/25 10:10:04;;;;;;;26.87;25.03;;;24.30;99.90;;;;;;5113340;28;20114;-71
2023/09/25 10:16:59;;;;;;;26.38;24.48;;;24.70;99.90;;;;;;5115013;28;20050;-72
2023/09/25 10:19:54;;;;;;;26.98;25.17;;;25.00;99.90;;;;;;5096817;28;20123;-71
2023/09/25 10:22:30;;;;;;;26.35;24.35;;;25.00;99.90;;;;;;5096327;28;20172;-72
2023/09/25 10:25:12;;;;;;;26.63;24.75;;;24.70;99.90;;;;;;5114987;28;20023;-71
2023/09/25 10:27:40;;;;;;;25.63;23.95;;;24.70;99.90;;;;;;5114551;28;20039;-71
2023/09/25 10:31:16;;;;;;;27.75;25.55;;;24.80;99.90;;;;;;5114750;28;20049;-72
2023/09/25 10:33:55;;;;;;;27.13;25.42;;;24.90;99.90;;;;;;5003508;28;20074;-72
2023/09/25 10:36:47;;;;;;;27.27;25.27;;;25.20;99.90;;;;;;5012223;28;20289;-71
2023/09/25 10:39:52;;;;;;;26.75;24.83;;;25.20;99.90;;;;;;4996225;28;20060;-71
2023/09/25 10:43:11;;;;;;;26.85;24.75;;;24.90;99.90;;;;;;5011524;28;20037;-71
2023/09/25 10:45:44;;;;;;;26.45;24.45;;;24.70;99.90;;;;;;5012193;28;20038;-71
2023/09/25 10:48:37;;;;;;;26.65;24.70;;;24.90;99.90;;;;;;5011905;28;20022;-71
2023/09/25 10:51:43;;;;;;;26.30;24.58;;;24.90;99.90;;;;;;5011999;28;20090;-71
2023/09/25 10:54:34;;;;;;;25.48;23.73;;;25.00;99.90;;;;;;5009187;28;20065;-71
2023/09/25 10:57:52;;;;;;;26.15;24.35;;;24.70;99.90;;;;;;5011525;28;20057;-71
2023/09/25 11:00:32;;;;;;;26.23;24.42;;;24.00;99.90;;;;;;5011322;28;20121;-71
2023/09/25 11:03:01;;;;;;;26.23;24.52;;;24.00;99.90;;;;;;5011325;28;20042;-72
2023/09/25 11:05:54;;;;;;;26.55;24.73;;;24.20;99.90;;;;;;5011709;28;20026;-71
2023/09/25 11:09:05;;;;;;;25.75;24.00;;;24.40;99.90;;;;;;5011770;28;20053;-72
2023/09/25 11:11:32;;;;;;;25.88;24.17;;;25.00;99.90;;;;;;5093771;28;20051;-72
2023/09/25 11:14:18;;;;;;;25.55;23.75;;;25.30;99.90;;;;;;5092696;28;20530;-72
2023/09/25 11:16:50;;;;;;;26.00;24.20;;;25.00;99.90;;;;;;5092006;28;20036;-71
2023/09/25 11:19:47;;;;;;;26.40;24.42;;;24.80;99.90;;;;;;5093482;28;20154;-71
2023/09/25 11:23:19;;;;;;;26.77;24.88;;;24.60;99.90;;;;;;5091968;28;20122;-71
2023/09/25 11:26:29;;;;;;;26.20;24.23;;;24.30;99.90;;;;;;5093217;28;20122;-71
2023/09/25 11:29:39;;;;;;;27.80;25.75;;;24.60;99.90;;;;;;5089126;28;20078;-71
2023/09/25 11:32:33;;;;;;;27.38;25.58;;;24.40;99.90;;;;;;5093580;28;20039;-74
2023/09/25 11:35:03;;;;;;;26.58;24.98;;;24.20;99.90;;;;;;5093212;28;20489;-74
2023/09/25 11:37:30;;;;;;;27.65;25.45;;;24.60;99.90;;;;;;5092720;28;20476;-74
2023/09/25 11:40:07;;;;;;;26.95;25.13;;;24.80;99.90;;;;;;5093126;28;20044;-73
2023/09/25 11:42:34;;;;;;;27.10;25.15;;;25.00;99.90;;;;;;5093277;28;20530;-74
2023/09/25 11:45:12;;;;;;;27.05;25.27;;;25.10;99.90;;;;;;5093171;28;20012;-74
2023/09/25 11:47:42;;;;;;;27.40;25.08;;;25.20;99.90;;;;;;5092906;28;20042;-74
2023/09/25 11:50:11;;;;;;;27.35;25.33;;;25.30;99.90;;;;;;5093182;28;20504;-75
2023/09/25 11:52:48;;;;;;;27.50;25.50;;;25.60;99.90;;;;;;5092926;28;20040;-74
2023/09/25 11:55:17;;;;;;;27.92;25.67;;;25.60;99.90;;;;;;5094943;28;20036;-74
2023/09/25 11:57:46;;;;;;;27.88;25.80;;;25.70;99.90;;;;;;5113109;28;20024;-74
2023/09/25 12:00:18;;;;;;;28.27;26.27;;;25.60;99.90;;;;;;5078318;28;20024;-74
2023/09/25 12:02:50;;;;;;;26.63;24.92;;;25.50;99.90;;;;;;5113070;28;20032;-74
2023/09/25 12:05:17;;;;;;;28.33;26.38;;;25.60;99.90;;;;;;5113236;28;20027;-73
2023/09/25 12:07:50;;;;;;;26.52;24.85;;;25.40;99.90;;;;;;5112980;28;20062;-74
2023/09/25 12:10:38;;;;;;;26.88;25.08;;;25.20;99.90;;;;;;5113054;28;20111;-73
2023/09/25 12:13:09;;;;;;;27.17;25.27;;;25.10;99.90;;;;;;5097667;28;20053;-73
2023/09/25 12:15:38;;;;;;;26.10;24.40;;;25.20;99.90;;;;;;5117242;28;20035;-73
2023/09/25 12:18:10;;;;;;;26.80;25.00;;;25.20;99.90;;;;;;5116261;28;20023;-74
2023/09/25 12:20:41;;;;;;;26.98;24.88;;;25.10;99.90;;;;;;5098625;28;20449;-73
2023/09/25 12:23:16;;;;;;;25.80;23.98;;;25.00;99.90;;;;;;5117293;28;20088;-73
2023/09/25 12:25:45;;;;;;;26.15;24.35;;;25.10;99.90;;;;;;5115910;28;20045;-72
2023/09/25 12:28:17;;;;;;;25.80;24.08;;;24.80;99.90;;;;;;5117043;28;20051;-74
2023/09/25 12:30:56;;;;;;;25.75;24.15;;;24.90;99.90;;;;;;5098822;28;20024;-74
2023/09/25 12:33:24;;;;;;;26.10;24.38;;;25.00;99.90;;;;;;5098885;28;20028;-73
2023/09/25 12:35:51;;;;;;;25.60;23.90;;;24.90;99.90;;;;;;5099342;28;20035;-74
2023/09/25 12:38:17;;;;;;;25.77;24.17;;;24.50;99.90;;;;;;5099387;28;20047;-69
2023/09/25 12:40:44;;;;;;;26.15;24.35;;;24.50;99.90;;;;;;5117049;28;20472;-71
2023/09/25 12:43:10;;;;;;;25.13;23.40;;;24.90;99.90;;;;;;5117160;28;20026;-71
2023/09/25 12:45:37;;;;;;;25.35;23.65;;;25.10;99.90;;;;;;5116942;28;20024;-71
2023/09/25 12:48:05;;;;;;;25.52;23.80;;;25.30;99.90;;;;;;5116717;28;20032;-70
2023/09/25 12:50:31;;;;;;;26.60;24.90;;;25.20;99.90;;;;;;5098861;28;20027;-71
2023/09/25 12:52:57;;;;;;;27.25;25.17;;;25.20;99.90;;;;;;5116691;28;20077;-71
2023/09/25 12:55:24;;;;;;;27.00;25.30;;;25.20;99.90;;;;;;5116337;28;20104;-71
2023/09/25 12:57:50;;;;;;;27.70;25.52;;;25.30;99.90;;;;;;5116312;28;20031;-71
2023/09/25 13:00:21;;;;;;;28.00;25.95;;;25.30;99.90;;;;;;5098637;28;20369;-72
2023/09/25 13:02:48;;;;;;;28.40;26.52;;;25.60;99.90;;;;;;5116546;28;20023;-72
2023/09/25 13:05:14;;;;;;;28.48;26.58;;;26.00;99.90;;;;;;5098342;28;20015;-72